Destin, FL (32540)

12:57 PM CDT on August 26, 2016 (GMT -0500)
Destin Water Users | | Change Station

Elev 26 ft 30.39 °N, 86.48 °W | Updated 11 seconds ago

Partly Cloudy
Partly Cloudy
89.9 °F
Feels Like 101 °F
N
0.0
Wind Variable Wind from SSE
Gusts 6.0 mph

Today
High -- | Low -- °F
--% Chance of Precip.
Yesterday
High -- | Low -- °F
Precip. -- in
Pressure 30.03 in
Visibility 10.0 miles
Clouds Few 4000 ft
Heat Index 101 °F
Dew Point 75 °F
Humidity 62%
Rainfall 0.02 in
Snow Depth Not available.
6:19 AM 7:15 PM
Waning Crescent, 32% visible
METAR KDTS 261753Z AUTO 15005KT 10SM FEW040 33/23 A3003 RMK AO2 SLP169 T03280228 10333 20272 58009
Pressure 30.03 in
Visibility 10.0 miles
Clouds Few 4000 ft
Heat Index 101 °F
Dew Point 75 °F
Humidity 62%
Rainfall 0.02 in
Snow Depth Not available.
6:19 AM 7:15 PM
Waning Crescent, 32% visible
METAR KDTS 261753Z AUTO 15005KT 10SM FEW040 33/23 A3003 RMK AO2 SLP169 T03280228 10333 20272 58009

10-Day Weather Forecast

Almanac

Astronomy

Aug. 26, 2016 Rise Set
Actual Time
Civil Twilight
Nautical Twilight
Astronomical Twilight
Moon
Length of Visible Light
Length of Day
Tomorrow will be .
, % of the Moon is Illuminated

Today's Extremes

State Highs State Lows

Community

WunderPhotos

Upload Photos

1,935,152 photos uploaded!

WunderBlog® & News

Nearby

Air Quality

  Air Quality AQ Index Pollutant
Not available.

Snow Depth

Station Depth Elevation

Earthquake Activity

City Distance Mag. Time & Date
Minimum magnitude displayed is 2.5.

Coastal Water Temperatures

Place Temperature

Stations

Nearby Weather Stations

Station Location Temp. Windchill Dew Point Humidity Wind Precip. Elev Updated Type
                   

Watches & Warnings

There are currently no watches in effect.